createdAt,value
2022-09-28T00:02:09.141Z,8.95
2022-09-28T00:04:35.867Z,8.98
2022-09-28T00:07:02.538Z,12.32
2022-09-28T00:09:29.256Z,10.05
2022-09-28T00:11:57.085Z,12.95
2022-09-28T00:14:23.784Z,7.13
2022-09-28T00:16:50.664Z,10.25
2022-09-28T00:19:17.783Z,11.02
2022-09-28T00:21:44.709Z,8.30
2022-09-28T00:24:19.010Z,8.15
2022-09-28T00:26:45.835Z,9.77
2022-09-28T00:29:12.483Z,9.10
2022-09-28T00:31:39.256Z,9.85
2022-09-28T00:34:05.971Z,9.68
2022-09-28T00:36:32.709Z,10.30
2022-09-28T00:38:59.390Z,9.43
2022-09-28T00:41:26.073Z,9.63
2022-09-28T00:43:53.011Z,5.43
2022-09-28T00:46:19.798Z,10.73
2022-09-28T00:48:46.490Z,6.85
2022-09-28T00:51:13.237Z,9.82
2022-09-28T00:53:39.891Z,9.93
2022-09-28T00:56:07.566Z,8.55
2022-09-28T00:58:34.383Z,7.30
2022-09-28T01:01:01.235Z,13.63
2022-09-28T01:03:27.981Z,10.63
2022-09-28T01:05:54.749Z,13.80
2022-09-28T01:08:21.531Z,11.43
2022-09-28T01:10:48.428Z,7.38
2022-09-28T01:13:19.340Z,9.23
2022-09-28T01:15:46.192Z,8.23
2022-09-28T01:18:13.593Z,10.40
2022-09-28T01:20:43.073Z,9.95
2022-09-28T01:23:13.064Z,11.13
2022-09-28T01:25:41.183Z,13.48
2022-09-28T01:28:07.870Z,9.35
2022-09-28T01:30:34.799Z,7.78
2022-09-28T01:33:01.508Z,9.43
2022-09-28T01:35:28.546Z,10.32
2022-09-28T01:37:55.449Z,7.22
2022-09-28T01:40:22.474Z,10.27
2022-09-28T01:42:49.400Z,9.82
2022-09-28T01:45:16.101Z,8.27
2022-09-28T01:47:42.842Z,9.27
2022-09-28T01:50:10.254Z,11.85
2022-09-28T01:52:41.117Z,5.80
2022-09-28T01:55:08.950Z,9.75
2022-09-28T01:57:35.854Z,8.82
2022-09-28T02:00:02.548Z,10.43
2022-09-28T02:02:40.915Z,7.90
2022-09-28T02:05:08.273Z,7.88
2022-09-28T02:07:34.941Z,10.48
2022-09-28T02:10:02.017Z,9.20
2022-09-28T02:12:29.033Z,8.55
2022-09-28T02:14:56.107Z,11.10
2022-09-28T02:17:22.847Z,12.35
2022-09-28T02:19:49.521Z,9.32
2022-09-28T02:22:23.263Z,12.82
2022-09-28T02:24:51.824Z,13.48
2022-09-28T02:27:23.551Z,6.75
2022-09-28T02:29:50.421Z,8.85
2022-09-28T02:32:17.082Z,11.93
2022-09-28T02:34:43.814Z,7.43
2022-09-28T02:37:10.508Z,9.30
2022-09-28T02:39:37.436Z,9.80
2022-09-28T02:42:04.181Z,6.60
2022-09-28T02:44:30.860Z,9.13
2022-09-28T02:46:57.544Z,9.10
2022-09-28T02:49:29.236Z,13.15
2022-09-28T02:51:56.153Z,12.52
2022-09-28T02:54:22.896Z,9.80
2022-09-28T02:56:49.633Z,11.40
2022-09-28T02:59:16.644Z,9.73
2022-09-28T03:01:43.664Z,7.88
2022-09-28T03:04:10.369Z,11.82
2022-09-28T03:06:38.041Z,8.73
2022-09-28T03:09:04.822Z,4.82
2022-09-28T03:11:34.014Z,11.68
2022-09-28T03:14:01.671Z,10.70
2022-09-28T03:16:38.747Z,7.32
2022-09-28T03:19:05.480Z,10.90
2022-09-28T03:21:32.235Z,10.38
2022-09-28T03:23:59.265Z,10.35
2022-09-28T03:26:25.978Z,6.53
2022-09-28T03:28:52.736Z,10.75
2022-09-28T03:31:23.402Z,8.40
2022-09-28T03:33:50.178Z,10.18
2022-09-28T03:36:16.953Z,11.23
2022-09-28T03:38:43.771Z,11.18
2022-09-28T03:41:11.086Z,11.20
2022-09-28T03:43:40.853Z,12.45
2022-09-28T03:46:07.726Z,11.52
2022-09-28T03:48:39.843Z,8.77
2022-09-28T03:51:09.319Z,7.32
2022-09-28T03:53:36.189Z,9.15
2022-09-28T03:56:03.051Z,10.55
2022-09-28T03:58:31.613Z,8.73
2022-09-28T04:00:58.426Z,10.68
2022-09-28T04:03:25.617Z,12.40
2022-09-28T04:05:52.760Z,16.73
2022-09-28T04:08:19.500Z,12.60
2022-09-28T04:10:46.285Z,8.35
2022-09-28T04:13:13.017Z,13.27
2022-09-28T04:15:41.070Z,7.57
2022-09-28T04:18:07.743Z,11.25
2022-09-28T04:20:48.320Z,7.38
2022-09-28T04:23:15.096Z,7.18
2022-09-28T04:25:45.891Z,12.27
2022-09-28T04:28:31.372Z,8.38
2022-09-28T04:30:58.560Z,8.65
2022-09-28T04:33:25.348Z,8.10
2022-09-28T04:35:52.090Z,9.77
2022-09-28T04:38:35.654Z,5.82
2022-09-28T04:41:06.129Z,13.20
2022-09-28T04:43:33.134Z,11.07
2022-09-28T04:46:00.540Z,12.73
2022-09-28T04:48:32.374Z,12.43
2022-09-28T04:51:12.977Z,11.43
2022-09-28T04:53:39.746Z,9.32
2022-09-28T04:56:06.544Z,10.30
2022-09-28T04:58:33.306Z,13.00
2022-09-28T05:01:00.132Z,9.55
2022-09-28T05:03:45.585Z,8.95
2022-09-28T05:06:27.956Z,11.07
2022-09-28T05:09:00.314Z,13.85
2022-09-28T05:11:27.199Z,13.77
2022-09-28T05:13:54.042Z,8.82
2022-09-28T05:16:20.808Z,13.60
2022-09-28T05:19:07.843Z,11.07
2022-09-28T05:21:34.644Z,7.38
2022-09-28T05:24:07.413Z,12.15
2022-09-28T05:26:36.154Z,12.77
2022-09-28T05:29:02.905Z,10.90
2022-09-28T05:31:47.982Z,10.65
2022-09-28T05:34:26.870Z,13.05
2022-09-28T05:36:54.485Z,12.68
2022-09-28T05:39:21.313Z,13.77
2022-09-28T05:41:48.222Z,11.32
2022-09-28T05:44:15.067Z,11.88
2022-09-28T05:46:42.016Z,17.25
2022-09-28T05:49:10.163Z,12.60
2022-09-28T05:51:37.504Z,11.00
2022-09-28T05:54:06.118Z,9.38
2022-09-28T05:56:35.650Z,10.60
2022-09-28T05:59:06.249Z,11.20
2022-09-28T06:01:33.167Z,11.75
2022-09-28T06:04:01.491Z,9.60
2022-09-28T06:06:28.183Z,10.30
2022-09-28T06:08:56.221Z,10.32
2022-09-28T06:11:48.432Z,12.85
2022-09-28T06:14:30.059Z,8.15
2022-09-28T06:16:56.830Z,9.95
2022-09-28T06:19:23.565Z,13.60
2022-09-28T06:22:05.784Z,10.30
2022-09-28T06:24:37.630Z,12.98
2022-09-28T06:27:04.540Z,8.15
2022-09-28T06:29:31.378Z,10.88
2022-09-28T06:31:58.149Z,11.65
2022-09-28T06:34:25.261Z,10.52
2022-09-28T06:36:52.639Z,10.13
2022-09-28T06:39:19.423Z,8.63
2022-09-28T06:41:46.286Z,10.50
2022-09-28T06:44:15.856Z,12.02
2022-09-28T06:47:05.448Z,9.02
2022-09-28T06:49:51.315Z,11.30
2022-09-28T06:52:20.615Z,14.40
2022-09-28T06:55:13.579Z,11.13
2022-09-28T06:57:44.397Z,9.93
2022-09-28T07:00:11.280Z,12.00
2022-09-28T07:02:38.042Z,10.23
2022-09-28T07:05:15.779Z,9.85
2022-09-28T07:07:57.634Z,10.55
2022-09-28T07:10:44.635Z,9.73
2022-09-28T07:13:48.500Z,15.63
2022-09-28T07:16:19.627Z,20.20
2022-09-28T07:18:48.505Z,12.68
2022-09-28T07:21:26.080Z,14.10
2022-09-28T07:23:55.501Z,12.65
2022-09-28T07:26:25.990Z,11.13
2022-09-28T07:29:01.627Z,11.02
2022-09-28T07:31:41.387Z,18.65
2022-09-28T07:34:26.544Z,10.90
2022-09-28T07:37:00.668Z,11.68
2022-09-28T07:39:28.200Z,13.57
2022-09-28T07:41:59.681Z,14.00
2022-09-28T07:44:29.869Z,10.07
2022-09-28T07:46:57.659Z,10.38
2022-09-28T07:49:36.162Z,10.68
2022-09-28T07:52:14.832Z,6.88
2022-09-28T07:55:07.208Z,13.15
2022-09-28T07:58:09.703Z,10.27
2022-09-28T08:01:17.735Z,8.70
2022-09-28T08:03:45.299Z,13.93
2022-09-28T08:06:12.775Z,9.85
2022-09-28T08:08:44.646Z,12.50
2022-09-28T08:11:13.262Z,18.75
2022-09-28T08:14:03.933Z,10.43
2022-09-28T08:17:05.818Z,12.85
2022-09-28T08:20:00.320Z,8.90
2022-09-28T08:22:32.202Z,10.98
2022-09-28T08:24:59.987Z,16.45
2022-09-28T08:27:26.709Z,10.60
2022-09-28T08:29:53.859Z,10.27
2022-09-28T08:32:44.277Z,11.90
2022-09-28T08:35:29.275Z,9.50
2022-09-28T08:38:11.351Z,10.07
2022-09-28T08:41:06.626Z,9.30
2022-09-28T08:43:53.639Z,10.43
2022-09-28T08:46:31.552Z,14.23
2022-09-28T08:49:26.506Z,11.95
2022-09-28T08:52:06.706Z,12.23
2022-09-28T08:54:51.745Z,11.65
2022-09-28T08:57:29.661Z,11.80
2022-09-28T08:59:56.985Z,11.73
2022-09-28T09:02:29.149Z,10.23
2022-09-28T09:05:10.216Z,9.73
2022-09-28T09:07:46.378Z,11.63
2022-09-28T09:10:14.817Z,13.95
2022-09-28T09:12:42.762Z,13.90
2022-09-28T09:15:09.488Z,11.68
2022-09-28T09:17:36.249Z,10.63
2022-09-28T09:20:28.918Z,8.93
2022-09-28T09:23:11.652Z,7.35
2022-09-28T09:25:38.791Z,12.98
2022-09-28T09:28:08.021Z,10.20
2022-09-28T09:30:34.804Z,10.07
2022-09-28T09:33:02.625Z,10.10
2022-09-28T09:35:31.586Z,18.73
2022-09-28T09:38:07.820Z,10.70
2022-09-28T09:40:53.694Z,10.00
2022-09-28T09:43:43.345Z,9.38
2022-09-28T09:46:28.379Z,12.02
2022-09-28T09:49:15.961Z,10.68
2022-09-28T09:51:42.830Z,10.35
2022-09-28T09:54:09.503Z,7.97
2022-09-28T09:56:36.316Z,8.20
2022-09-28T09:59:18.111Z,8.77
2022-09-28T10:02:07.728Z,7.47
2022-09-28T10:04:43.256Z,7.90
2022-09-28T10:07:18.103Z,6.50
2022-09-28T10:09:45.949Z,5.60
2022-09-28T10:12:31.199Z,5.28
2022-09-28T10:14:59.382Z,8.18
2022-09-28T10:17:28.267Z,8.27
2022-09-28T10:20:15.906Z,8.00
2022-09-28T10:23:03.172Z,4.97
2022-09-28T10:25:30.085Z,5.10
2022-09-28T10:27:56.857Z,7.30
2022-09-28T10:30:23.685Z,4.97
2022-09-28T10:32:50.497Z,7.07
2022-09-28T10:35:17.608Z,5.03
2022-09-28T10:37:46.177Z,4.30
2022-09-28T10:40:30.514Z,8.02
2022-09-28T10:42:58.866Z,48.15
2022-09-28T10:45:25.622Z,9.27
2022-09-28T10:47:52.388Z,9.68
2022-09-28T10:50:20.118Z,3.58
2022-09-28T10:52:47.343Z,3.80
2022-09-28T10:55:36.903Z,4.35
2022-09-28T10:58:04.129Z,7.28
2022-09-28T11:00:40.677Z,3.67
2022-09-28T11:03:13.813Z,2.85
2022-09-28T11:05:43.269Z,5.90
2022-09-28T11:08:09.987Z,4.38
2022-09-28T11:10:45.878Z,2.63
2022-09-28T11:13:14.253Z,3.53
2022-09-28T11:15:45.735Z,5.25
2022-09-28T11:18:22.545Z,3.58
2022-09-28T11:20:49.804Z,2.50
2022-09-28T11:23:17.591Z,4.57
2022-09-28T11:25:45.271Z,5.57
2022-09-28T11:28:12.188Z,5.88
2022-09-28T11:30:40.660Z,3.63
2022-09-28T11:33:33.540Z,2.72
2022-09-28T11:36:09.274Z,3.08
2022-09-28T11:38:36.144Z,4.13
2022-09-28T11:41:22.981Z,1.77
2022-09-28T11:43:50.725Z,3.88
2022-09-28T11:46:17.539Z,3.38
2022-09-28T11:48:45.335Z,2.72
2022-09-28T11:51:12.288Z,4.38
2022-09-28T11:53:39.037Z,4.53
2022-09-28T11:56:08.822Z,3.08
2022-09-28T11:58:36.138Z,3.28
2022-09-28T12:01:04.318Z,4.00
2022-09-28T12:03:50.879Z,3.33
2022-09-28T12:06:17.729Z,2.40
2022-09-28T12:08:44.855Z,4.07
2022-09-28T12:14:22.376Z,4.32
2022-09-28T12:17:07.147Z,3.90
2022-09-28T12:19:34.561Z,3.55
2022-09-28T12:22:01.271Z,6.15
2022-09-28T12:24:28.112Z,4.28
2022-09-28T12:26:54.775Z,7.20
2022-09-28T12:29:21.461Z,26.83
2022-09-28T12:31:48.215Z,7.28
2022-09-28T12:34:15.141Z,4.32
2022-09-28T12:36:41.864Z,3.58
2022-09-28T12:39:18.979Z,3.05
2022-09-28T12:41:50.087Z,2.88
2022-09-28T12:44:17.565Z,2.92
2022-09-28T12:46:45.911Z,4.28
2022-09-28T12:50:01.834Z,4.38
2022-09-28T12:52:02.490Z,4.30
2022-09-28T12:54:30.558Z,4.20
2022-09-28T12:56:58.161Z,2.17
2022-09-28T12:59:25.297Z,3.25
2022-09-28T13:01:52.124Z,2.92
2022-09-28T13:04:18.888Z,4.82
2022-09-28T13:06:45.533Z,3.38
2022-09-28T13:09:13.305Z,4.82
2022-09-28T13:11:41.214Z,7.43
2022-09-28T13:14:08.098Z,3.85
2022-09-28T13:16:34.809Z,5.45
2022-09-28T13:19:01.444Z,5.00
2022-09-28T13:21:28.478Z,4.28
2022-09-28T13:24:00.833Z,3.05
2022-09-28T13:26:37.099Z,5.07
2022-09-28T13:29:04.377Z,3.38
2022-09-28T13:31:33.155Z,2.20
2022-09-28T13:34:01.626Z,3.55
2022-09-28T13:36:28.371Z,3.55
2022-09-28T13:38:55.088Z,4.20
2022-09-28T13:41:21.837Z,5.60
2022-09-28T13:43:49.111Z,4.20
2022-09-28T13:46:15.825Z,4.82
2022-09-28T13:48:44.461Z,3.47
2022-09-28T13:51:11.137Z,2.78
2022-09-28T13:53:39.557Z,3.22
2022-09-28T13:56:06.415Z,5.78
2022-09-28T13:58:33.101Z,2.67
2022-09-28T14:01:00.060Z,2.88
2022-09-28T14:03:26.761Z,2.80
2022-09-28T14:05:53.431Z,3.08
2022-09-28T14:08:20.941Z,4.13
2022-09-28T14:10:49.880Z,3.80
2022-09-28T14:13:17.876Z,5.72
2022-09-28T14:15:44.829Z,5.47
2022-09-28T14:18:11.611Z,4.05
2022-09-28T14:20:38.239Z,3.88
2022-09-28T14:23:05.472Z,3.63
2022-09-28T14:25:32.124Z,2.88
2022-09-28T14:27:58.788Z,3.70
2022-09-28T14:30:25.763Z,3.90
2022-09-28T14:32:52.370Z,3.92
2022-09-28T14:35:19.106Z,4.28
2022-09-28T14:38:04.747Z,3.28
2022-09-28T14:40:50.270Z,2.72
2022-09-28T14:43:17.132Z,1.60
2022-09-28T14:45:45.833Z,3.70
2022-09-28T14:48:12.646Z,3.33
2022-09-28T14:50:39.503Z,3.00
2022-09-28T14:53:06.265Z,2.95
2022-09-28T14:55:33.013Z,2.95
2022-09-28T14:57:59.713Z,5.30
2022-09-28T15:00:26.591Z,3.08
2022-09-28T15:02:53.366Z,4.82
2022-09-28T15:05:20.198Z,4.40
2022-09-28T15:07:47.990Z,4.35
2022-09-28T15:10:15.750Z,3.65
2022-09-28T15:12:42.845Z,4.63
2022-09-28T15:15:09.471Z,5.50
2022-09-28T15:17:39.709Z,3.97
2022-09-28T15:20:07.222Z,3.72
2022-09-28T15:22:33.943Z,5.75
2022-09-28T15:25:02.731Z,3.88
2022-09-28T15:27:29.784Z,4.97
2022-09-28T15:29:56.577Z,6.40
2022-09-28T15:32:23.262Z,4.43
2022-09-28T15:34:52.877Z,6.32
2022-09-28T15:37:21.997Z,3.53
2022-09-28T15:39:48.669Z,2.97
2022-09-28T15:42:16.635Z,4.25
2022-09-28T15:44:45.841Z,4.40
2022-09-28T15:47:14.052Z,4.05
2022-09-28T15:49:41.685Z,3.78
2022-09-28T15:52:08.384Z,2.75
2022-09-28T15:54:35.282Z,4.95
2022-09-28T15:57:02.628Z,2.80
2022-09-28T15:59:30.782Z,5.53
2022-09-28T16:01:57.476Z,5.15
2022-09-28T16:04:24.179Z,3.92
2022-09-28T16:06:55.680Z,4.53
2022-09-28T16:09:22.490Z,2.35
2022-09-28T16:11:50.824Z,7.65
2022-09-28T16:14:17.484Z,6.22
2022-09-28T16:16:46.564Z,8.90
2022-09-28T16:19:13.527Z,4.13
2022-09-28T16:21:40.264Z,3.42
2022-09-28T16:24:08.589Z,5.85
2022-09-28T16:26:35.273Z,5.35
2022-09-28T16:29:02.312Z,3.45
2022-09-28T16:31:29.340Z,5.93
2022-09-28T16:33:56.110Z,4.72
2022-09-28T16:36:22.840Z,3.28
2022-09-28T16:38:49.539Z,2.78
2022-09-28T16:41:19.507Z,3.90
2022-09-28T16:43:46.229Z,6.97
2022-09-28T16:46:13.292Z,6.68
2022-09-28T16:48:40.147Z,3.55
2022-09-28T16:51:06.839Z,4.35
2022-09-28T16:53:51.991Z,2.78
2022-09-28T16:56:18.703Z,4.47
2022-09-28T16:58:48.167Z,5.05
2022-09-28T17:01:15.066Z,3.80
2022-09-28T17:03:46.742Z,3.08
2022-09-28T17:06:13.496Z,3.72
2022-09-28T17:08:40.146Z,3.90
2022-09-28T17:11:15.967Z,3.50
2022-09-28T17:13:45.908Z,3.28
2022-09-28T17:16:12.668Z,2.80
2022-09-28T17:18:40.020Z,2.45
2022-09-28T17:21:06.713Z,3.70
2022-09-28T17:23:33.434Z,3.03
2022-09-28T17:26:00.117Z,3.35
2022-09-28T17:28:26.837Z,2.90
2022-09-28T17:30:53.660Z,4.18
2022-09-28T17:33:20.393Z,4.15
2022-09-28T17:35:47.241Z,3.88
2022-09-28T17:38:13.969Z,5.70
2022-09-28T17:40:40.695Z,4.00
2022-09-28T17:43:07.450Z,3.72
2022-09-28T17:45:35.914Z,3.20
2022-09-28T17:48:02.668Z,3.17
2022-09-28T17:50:29.768Z,4.47
2022-09-28T17:52:57.838Z,5.35
2022-09-28T17:55:24.605Z,7.40
2022-09-28T17:57:51.560Z,3.88
2022-09-28T18:00:18.274Z,5.68
2022-09-28T18:02:45.123Z,3.55
2022-09-28T18:05:13.504Z,4.82
2022-09-28T18:07:44.206Z,7.38
2022-09-28T18:10:13.896Z,3.55
2022-09-28T18:12:40.598Z,5.45
2022-09-28T18:15:07.307Z,7.03
2022-09-28T18:17:34.028Z,7.43
2022-09-28T18:20:00.726Z,6.00
2022-09-28T18:22:27.521Z,4.35
2022-09-28T18:24:54.176Z,4.97
2022-09-28T18:27:20.877Z,6.65
2022-09-28T18:29:47.588Z,4.38
2022-09-28T18:32:14.344Z,5.75
2022-09-28T18:34:41.232Z,5.13
2022-09-28T18:37:08.002Z,9.73
2022-09-28T18:39:34.713Z,7.10
2022-09-28T18:42:02.313Z,6.05
2022-09-28T18:44:28.969Z,5.95
2022-09-28T18:46:55.630Z,5.45
2022-09-28T18:49:22.465Z,5.68
2022-09-28T18:51:49.291Z,5.75
2022-09-28T18:54:16.166Z,5.80
2022-09-28T18:56:42.973Z,9.73
2022-09-28T18:59:12.100Z,8.85
2022-09-28T19:01:39.051Z,8.35
2022-09-28T19:04:05.759Z,9.38
2022-09-28T19:06:32.789Z,9.75
2022-09-28T19:08:59.670Z,10.55
2022-09-28T19:11:26.405Z,8.70
2022-09-28T19:13:53.150Z,9.82
2022-09-28T19:16:20.884Z,11.55
2022-09-28T19:18:47.628Z,10.82
2022-09-28T19:21:14.360Z,8.88
2022-09-28T19:23:41.874Z,10.57
2022-09-28T19:26:10.541Z,9.90
2022-09-28T19:28:37.378Z,9.90
2022-09-28T19:31:04.075Z,13.68
2022-09-28T19:33:30.819Z,15.02
2022-09-28T19:35:57.510Z,13.18
2022-09-28T19:38:24.206Z,13.55
2022-09-28T19:40:50.958Z,12.15
2022-09-28T19:43:21.203Z,10.00
2022-09-28T19:45:52.086Z,10.75
2022-09-28T19:48:19.013Z,13.95
2022-09-28T19:50:46.284Z,9.85
2022-09-28T19:53:13.132Z,15.20
2022-09-28T19:55:40.930Z,12.30
2022-09-28T19:58:07.977Z,12.27
2022-09-28T20:00:34.667Z,12.85
2022-09-28T20:03:01.430Z,12.30
2022-09-28T20:05:28.359Z,20.85
2022-09-28T20:07:55.056Z,11.48
2022-09-28T20:10:21.807Z,15.65
2022-09-28T20:12:48.513Z,16.27
2022-09-28T20:15:16.656Z,17.08
2022-09-28T20:17:43.337Z,16.00
2022-09-28T20:20:09.995Z,14.93
2022-09-28T20:22:37.103Z,12.60
2022-09-28T20:25:03.948Z,12.95
2022-09-28T20:27:30.627Z,16.85
2022-09-28T20:29:57.430Z,11.68
2022-09-28T20:32:24.037Z,15.60
2022-09-28T20:34:50.770Z,12.05
2022-09-28T20:37:17.634Z,15.70
2022-09-28T20:39:45.193Z,11.50
2022-09-28T20:42:12.000Z,11.73
2022-09-28T20:44:38.742Z,10.63
2022-09-28T20:47:05.446Z,9.85
2022-09-28T20:49:32.178Z,12.05
2022-09-28T20:51:58.831Z,12.82
2022-09-28T20:54:25.702Z,12.60
2022-09-28T20:56:52.384Z,10.90
2022-09-28T20:59:20.337Z,11.55
2022-09-28T21:01:47.108Z,12.43
2022-09-28T21:04:13.855Z,14.43
2022-09-28T21:06:40.584Z,12.68
2022-09-28T21:09:07.250Z,15.60
2022-09-28T21:11:35.619Z,16.15
2022-09-28T21:14:02.613Z,15.40
2022-09-28T21:16:29.297Z,12.88
2022-09-28T21:18:55.967Z,11.93
2022-09-28T21:21:22.659Z,14.38
2022-09-28T21:23:49.422Z,16.65
2022-09-28T21:26:16.307Z,16.20
2022-09-28T21:28:44.799Z,15.60
2022-09-28T21:31:11.758Z,14.45
2022-09-28T21:33:38.550Z,19.35
2022-09-28T21:36:05.195Z,24.02
2022-09-28T21:38:31.884Z,18.88
2022-09-28T21:40:58.662Z,20.08
2022-09-28T21:43:25.441Z,17.73
2022-09-28T21:45:52.215Z,12.77
2022-09-28T21:48:18.992Z,13.73
2022-09-28T21:50:45.674Z,10.93
2022-09-28T21:53:12.981Z,12.50
2022-09-28T21:55:39.671Z,12.52
2022-09-28T21:58:06.403Z,7.68
2022-09-28T22:00:33.100Z,8.70
2022-09-28T22:02:59.871Z,8.30
2022-09-28T22:05:27.144Z,9.85
2022-09-28T22:07:53.851Z,11.00
2022-09-28T22:10:20.528Z,9.93
2022-09-28T22:12:47.313Z,10.35
2022-09-28T22:15:14.008Z,12.75
2022-09-28T22:17:40.774Z,10.80
2022-09-28T22:20:07.468Z,11.50
2022-09-28T22:22:34.214Z,11.75
2022-09-28T22:25:01.073Z,10.18
2022-09-28T22:27:27.784Z,11.75
2022-09-28T22:29:54.480Z,9.18
2022-09-28T22:32:23.760Z,11.75
2022-09-28T22:34:50.455Z,12.30
2022-09-28T22:37:17.228Z,10.10
2022-09-28T22:39:47.393Z,10.20
2022-09-28T22:42:14.640Z,10.38
2022-09-28T22:44:44.862Z,9.88
2022-09-28T22:47:11.565Z,12.18
2022-09-28T22:49:38.277Z,10.20
2022-09-28T22:52:04.961Z,10.02
2022-09-28T22:54:31.714Z,11.60
2022-09-28T22:56:58.390Z,10.50
2022-09-28T22:59:25.292Z,8.73
2022-09-28T23:01:52.037Z,9.70
2022-09-28T23:04:18.776Z,9.95
2022-09-28T23:06:45.789Z,11.35
2022-09-28T23:09:12.415Z,9.43
2022-09-28T23:11:39.064Z,9.65
2022-09-28T23:14:06.640Z,12.23
2022-09-28T23:16:33.375Z,7.63
2022-09-28T23:19:00.156Z,10.82
2022-09-28T23:21:26.864Z,12.45
2022-09-28T23:23:53.538Z,10.23
2022-09-28T23:26:20.408Z,10.18
2022-09-28T23:28:47.106Z,10.68
2022-09-28T23:31:13.881Z,9.32
2022-09-28T23:33:40.687Z,11.27
2022-09-28T23:36:07.340Z,12.52
2022-09-28T23:38:33.993Z,11.57
2022-09-28T23:41:00.848Z,10.10
2022-09-28T23:43:27.521Z,10.75
2022-09-28T23:45:54.197Z,8.88
2022-09-28T23:48:20.906Z,9.60
2022-09-28T23:50:47.660Z,8.82
2022-09-28T23:53:14.441Z,7.70
2022-09-28T23:55:41.161Z,10.43
2022-09-28T23:58:07.850Z,8.95
